»·PEaware :: N467BN KPSP-KSAN

N467BN :: KPSP-KSAN

FLIGHT INFORMATION

Flight Status: Arrived
Operator: Privately registered:
United States
More flights under this callsign
Pilot: Skye D. (10623)
Aircraft: CESSNA 208 CARAVAN
(C208)
More flights by this aircraft type
Origin: KPSP Palm Springs Intl
United States
Destination: KSAN San Diego Intl-Lindbergh
United States
More flights between these airports :: More routes between these airports
Route: CATH1 PSP V137 TRM V514 MZB
File this flight plan on PilotEdge
Remarks:
Altitude:
(Current/Filed)
10,000ft
Speed:
(Current/Filed)
140kts
Departed: 10-May-18 10:17 AM
Arrived: 10-May-18 11:19 AM
Distance/Time
Traveled:
74nm/1:02
Distance/Time
To Go:
Arrived

Flight Plot

Page will automatically refresh every two minutes.

Flight plan parsing failed; only flown route is shown


Map Options




Map Legend


Flown Route
Filed Route
Departure Airport
Arrival Airport
Navaid (VOR, NDB)
Fix

Horizontal Profiles

Position Reports

Time Latitude Longitude Heading Altitude Ground
Speed
10-May-18 09:48 33.825344 -116.509538 90 423ft 0kts
10-May-18 09:49 33.825344 -116.509538 90 423ft 0kts
10-May-18 09:50 33.825344 -116.509538 90 423ft 0kts
10-May-18 09:51 33.825344 -116.509538 90 423ft 0kts
10-May-18 09:52 33.825344 -116.509538 90 423ft 0kts
10-May-18 09:53 33.825344 -116.509538 90 423ft 0kts
10-May-18 09:54 33.825344 -116.509538 90 423ft 0kts
10-May-18 09:55 33.825344 -116.509538 90 423ft 0kts
10-May-18 09:56 33.825344 -116.509538 90 423ft 0kts
10-May-18 10:05 33.825354 -116.509535 90 423ft 0kts
10-May-18 10:06 33.825354 -116.509535 90 423ft 0kts
10-May-18 10:07 33.825354 -116.509535 90 423ft 0kts
10-May-18 10:08 33.825354 -116.509535 90 423ft 0kts
10-May-18 10:09 33.825354 -116.509535 90 423ft 0kts
10-May-18 10:10 33.825354 -116.509535 90 423ft 0kts
10-May-18 10:11 33.825363 -116.508606 91 423ft 16kts
10-May-18 10:12 33.825322 -116.506621 83 419ft 0kts
10-May-18 10:13 33.823707 -116.504309 142 413ft 21kts
10-May-18 10:14 33.819593 -116.500761 141 402ft 21kts
10-May-18 10:15 33.818488 -116.499055 82 398ft 0kts
10-May-18 10:16 33.818570 -116.498576 67 397ft 9kts
10-May-18 10:17 33.821349 -116.500249 322 403ft 75kts
10-May-18 10:18 33.840471 -116.517996 323 1560ft 92kts
10-May-18 10:19 33.855237 -116.537563 318 2603ft 104kts
10-May-18 10:20 33.870400 -116.556718 319 3900ft 86kts
10-May-18 10:21 33.885061 -116.572604 324 5085ft 84kts
10-May-18 10:22 33.900130 -116.564975 109 6134ft 138kts
10-May-18 10:23 33.891650 -116.521127 107 7317ft 139kts
10-May-18 10:24 33.882452 -116.476589 110 8402ft 139kts
10-May-18 10:25 33.871350 -116.432435 117 9385ft 139kts
10-May-18 10:26 33.853397 -116.390438 132 9992ft 151kts
10-May-18 10:27 33.830575 -116.345882 128 10003ft 169kts
10-May-18 10:28 33.804174 -116.301768 157 10001ft 158kts
10-May-18 10:29 33.769420 -116.275003 157 9998ft 159kts
10-May-18 10:30 33.732836 -116.245962 156 9958ft 162kts
10-May-18 10:31 33.696145 -116.216416 155 9953ft 159kts
10-May-18 10:32 33.660000 -116.187122 156 9955ft 158kts
10-May-18 10:33 33.622515 -116.159081 184 9954ft 152kts
10-May-18 10:34 33.594098 -116.187386 234 9952ft 129kts
10-May-18 10:35 33.570752 -116.218433 225 9952ft 126kts
10-May-18 10:36 33.544226 -116.245731 224 9952ft 127kts
10-May-18 10:37 33.517672 -116.272627 226 9988ft 124kts
10-May-18 10:38 33.483790 -116.286414 215 9990ft 128kts
10-May-18 10:39 33.456778 -116.309914 223 9988ft 126kts
10-May-18 10:40 33.428846 -116.334690 223 9988ft 126kts
10-May-18 10:41 33.401421 -116.358706 223 9988ft 126kts
10-May-18 10:42 33.373725 -116.382817 222 9987ft 126kts
10-May-18 10:43 33.346041 -116.406833 222 9987ft 126kts
10-May-18 10:44 33.318016 -116.431758 224 9987ft 125kts
10-May-18 10:45 33.291137 -116.455890 223 9987ft 125kts
10-May-18 10:46 33.263639 -116.480217 223 9843ft 134kts
10-May-18 10:47 33.235963 -116.504384 222 9876ft 124kts
10-May-18 10:48 33.208843 -116.528039 223 9968ft 124kts
10-May-18 10:49 33.181177 -116.552119 222 9968ft 126kts
10-May-18 10:50 33.153111 -116.576465 222 9968ft 127kts
10-May-18 10:51 33.125093 -116.600967 222 9967ft 127kts
10-May-18 10:52 33.087268 -116.606067 187 9405ft 159kts
10-May-18 10:53 33.044207 -116.603487 187 8965ft 143kts
10-May-18 10:54 33.005062 -116.600059 184 8967ft 143kts
10-May-18 10:55 32.966318 -116.597460 201 8969ft 135kts
10-May-18 10:56 32.929430 -116.607130 202 8950ft 139kts
10-May-18 10:57 32.892305 -116.617178 202 8950ft 139kts
10-May-18 10:58 32.854812 -116.627448 202 8951ft 139kts
10-May-18 10:59 32.817400 -116.637802 202 8951ft 138kts
10-May-18 11:00 32.780067 -116.648179 202 8950ft 138kts
10-May-18 11:01 32.743300 -116.658338 201 8960ft 139kts
10-May-18 11:02 32.720640 -116.687134 250 8504ft 149kts
10-May-18 11:03 32.706741 -116.735342 250 7043ft 147kts
10-May-18 11:04 32.694686 -116.779282 250 5268ft 142kts
10-May-18 11:05 32.684516 -116.820664 250 4962ft 124kts
10-May-18 11:06 32.675432 -116.858598 250 4590ft 123kts
10-May-18 11:07 32.667493 -116.896868 262 3965ft 115kts
10-May-18 11:08 32.672464 -116.936226 280 3965ft 139kts
10-May-18 11:09 32.681875 -116.976166 282 3625ft 127kts
10-May-18 11:10 32.689259 -117.006510 282 3070ft 112kts
10-May-18 11:11 32.696278 -117.035619 287 2666ft 94kts
10-May-18 11:12 32.702309 -117.059602 278 2413ft 93kts
10-May-18 11:13 32.708136 -117.084668 279 1949ft 101kts
10-May-18 11:14 32.711888 -117.100348 287 1640ft 100kts
10-May-18 11:15 32.716852 -117.120696 286 1223ft 88kts
10-May-18 11:16 32.721689 -117.140844 287 813ft 71kts
10-May-18 11:17 32.726183 -117.159594 287 462ft 71kts
10-May-18 11:18 32.730609 -117.177612 287 83ft 67kts
10-May-18 11:19 32.733569 -117.188150 345 19ft 16kts
10-May-18 11:20 32.733114 -117.183127 101 18ft 17kts
10-May-18 11:21 32.731951 -117.178192 84 19ft 11kts
10-May-18 11:22 32.732287 -117.177212 190 22ft 0kts
10-May-18 11:23 32.732287 -117.177212 190 22ft 0kts

Navigation Log

Ident Type
Flight plan parsing failed, navigation log unavailable